x

Grays Reef - 40 Nm Southeast Of Savannah, Ga (41008) Wave Buoy

4:50am - Wed 29th Jul 2015 All times are EDT. -4 hours from GMT.

  • Sig Wave height 2.6ft
  • Swell Direction
  • Peak Period 5s
  • Average Period 4s
  • Wind
    9mph, 11mph gusts
  • Sea Temp 82°f
  • Air Temp 81°f
  • Sea Pressure 1013.1mb
  • Grays Reef - 40 Nm Southeast Of Savannah, Ga
  • Grays Reef - 40 Nm Southeast Of Savannah, Ga

More Historic Weather Station data

Upgrade to MSW Pro to gain access to the past 30 days of data for over 8000 Wavebouys and Weather Stations around the globe.

Join Pro

Comparision Forecast

View Surf forecast
   
Wed 07/29 4:50am 2.5ft 5s 4s 9 11 mph 1013.1mb 82f 81f
3:50am 2.5ft 5s 4s 9 11 mph 1013.3mb 82f 81f
2:50am 2.5ft 5s 4s 9 11 mph 1013.7mb 82f 81f
1:50am 2.5ft 4s 4s 9 11 mph 1014mb 82f 82f
12:50am 2.5ft 6s 4s 11 13 mph 1014.2mb 82f 82f
Tue 07/28 11:50pm 2.5ft 5s 4s 11
mph
1014.7mb 82f 82f
10:50pm 2.5ft 5s 4s 11 13 mph 1014.5mb 82f 82f
9:50pm 2.5ft 4s 4s 11 13 mph 1014.2mb 82f 82f
8:50pm 2.5ft 4s 4s 13 16 mph 1013.8mb 82f 82f
7:50pm 2.5ft 4s 4s 13 16 mph 1013.9mb 82f 82f
6:50pm 2.5ft 4s 4s 13 16 mph 1013.2mb 82f 82f
5:50pm 2.5ft 5s 4s 11 13 mph 1013.6mb 82f 82f
4:50pm 2.5ft 4s 4s 13 16 mph 1013.7mb 82f 82f
3:50pm 2.5ft 11s 4s 11 13 mph 1014mb 82f 82f
2:50pm 2ft 5s 4s 13 16 mph 1014.5mb 83f 82f
1:50pm 2ft 6s 4s 13 16 mph 1015mb 83f 82f
12:50pm 2ft 5s 5s 11
mph
1015.1mb 83f 82f
11:50am 2ft 5s 5s 9 11 mph 1015.4mb 83f 82f
10:50am 1.6ft 5s 5s 4 7 mph 1015.4mb 83f 81f
9:50am 2ft 6s 5s 4 7 mph 1015.3mb 82f 81f
8:50am 2ft 6s 5s 4 7 mph 1015.2mb 82f 81f
7:50am 1.6ft 7s 5s 4
mph
1014.7mb 82f 82f
5:50am 1.6ft 7s 5s 4
mph
1013.2mb 82f 80f
4:50am 2ft 5s 5s  -  2 mph 1013.1mb 82f 81f
3:50am 2ft 5s 5s  -  mph 1013.7mb 82f 81f
2:50am 1.6ft 11s 5s 2 4 mph 1013.9mb 82f 81f
1:50am 2ft 7s 5s  -  mph 1014.4mb 82f 81f
12:50am 2ft 5s 5s  -  2 mph 1014.5mb 82f 81f
Mon 07/27 11:50pm 2ft 5s 5s 2
mph
1014.4mb 82f 81f
10:50pm 2ft 8s 5s 2 4 mph 1013.9mb 82f 81f
9:50pm 2ft 6s 5s 2 4 mph 1013.8mb 82f 82f
8:50pm 2ft 6s 5s 4 7 mph 1013.7mb 82f 82f
7:50pm 2ft 11s 5s 4 7 mph 1013.5mb 82f 82f
6:50pm 2ft 6s 4s 7 9 mph 1013mb 82f 82f
5:50pm 2ft 11s 4s 9 11 mph 1013.3mb 82f 82f
4:50pm 2ft 11s 4s 9 11 mph 1013.2mb 82f 82f
3:50pm 2ft 6s 4s 11 13 mph 1013.5mb 82f 82f
2:50pm 2ft 7s 4s 11 13 mph 1013.9mb 83f 82f
1:50pm 2ft 11s 4s 11 13 mph 1014.2mb 83f 82f
12:50pm 2ft 6s 4s 9 11 mph 1014.4mb 83f 82f
11:50am 1.6ft 8s 5s 11 13 mph 1014.5mb 82f 82f
10:50am 2ft 8s 5s 11 13 mph 1014.7mb 82f 81f
9:50am 2ft 8s 5s 4 7 mph 1014.4mb 82f 82f
8:50am 2ft 11s 5s 7 9 mph 1013.8mb 82f 81f
7:50am 2.5ft 6s 5s 9
mph
1013.4mb 81f 81f
6:50am 2.5ft 5s 5s 7 9 mph 1013.1mb 81f 81f
5:50am 2.5ft 6s 5s 9
mph
1012.5mb 81f 80f
4:50am 2.5ft 6s 4s 9 11 mph 1012.2mb 81f 81f
3:50am 3ft 6s 4s 11 13 mph 1012.2mb 81f 81f
2:50am 3ft 6s 4s 13 16 mph 1012.6mb 81f 81f
1:50am 3.5ft 6s 4s 13 16 mph 1013mb 81f 81f
12:50am 3.5ft 6s 5s 13 16 mph 1013.3mb 82f 81f
Sun 07/26 11:50pm 3.5ft 6s 4s 13 16 mph 1013.4mb 82f 81f
10:50pm 4ft 6s 5s 13 16 mph 1013.6mb 82f 81f
9:50pm 3.5ft 6s 5s 13 16 mph 1013.3mb 82f 81f
8:50pm 4ft 5s 5s 13 18 mph 1013.4mb 82f 81f
7:50pm 4ft 6s 5s 16 18 mph 1013.2mb 81f 81f
6:50pm 4ft 6s 5s 18 22 mph 1013.1mb 81f 81f
5:50pm 4.5ft 6s 5s 18 20 mph 1013.2mb 81f 81f
4:50pm 4.5ft 6s 4s 20 22 mph 1013mb 81f 81f
3:50pm 4.5ft 6s 4s 20 25 mph 1013.1mb 81f 81f
2:50pm 4.5ft 6s 5s 18 22 mph 1013.7mb 82f 81f
1:50pm 4ft 6s 4s 20 22 mph 1013.8mb 82f 81f
12:50pm 4.5ft 5s 4s 18 20 mph 1014.2mb 82f 81f
11:50am 4ft 5s 4s 18 20 mph 1014.2mb 82f 81f
10:50am 4.5ft 5s 4s 18 22 mph 1013.9mb 82f 81f
9:50am 4.5ft 5s 4s 20 25 mph 1013.5mb 81f 80f
8:50am 4.5ft 5s 4s 20 25 mph 1013.3mb 81f 80f
7:50am 4.5ft 5s 5s 20 25 mph 1012.5mb 81f 80f
6:50am 4ft 6s 5s 20 27 mph 1012mb 81f 80f
5:50am 4ft 7s 5s 18 22 mph 1011.6mb 81f 80f
4:50am 4.5ft 8s 5s 20 22 mph 1011.5mb 81f 80f
3:50am 4.5ft 6s 5s 18 20 mph 1011.2mb 81f 80f
2:50am 5ft 6s 5s 18 22 mph 1012mb 81f 80f
1:50am 5ft 7s 5s 18 25 mph 1012.8mb 81f 80f
12:50am 5ft 6s 5s 18 20 mph 1013.2mb 81f 81f
Sat 07/25 11:50pm 5ft 6s 5s 20 25 mph 1013.4mb 81f 81f
10:50pm 4.5ft 6s 5s 18 22 mph 1013.1mb 81f 81f
9:50pm 4.5ft 6s 5s 18 22 mph 1013.4mb 81f 80f
8:50pm 4.5ft 6s 4s 20 22 mph 1013.2mb 81f 80f
7:50pm 4.5ft 6s 5s 20 25 mph 1013mb 81f 80f
6:50pm 4.5ft 6s 5s 20 25 mph 1012.5mb 80f 80f
5:50pm 4.5ft 6s 5s 18 22 mph 1012.7mb 80f 80f
4:50pm 4.5ft 6s 5s 18 22 mph 1012.7mb 80f 80f
3:50pm 5ft 6s 5s 20 22 mph 1013.4mb 80f 80f
2:50pm 5ft 6s 5s 20 22 mph 1014mb 80f 81f
1:50pm 5ft 5s 4s 20 22 mph 1014mb 80f 81f
12:50pm 4.5ft 5s 4s 20 25 mph 1014.2mb 80f 81f
11:50am 4.5ft 5s 4s 22 27 mph 1014mb 80f 81f
10:50am 3.5ft 5s 4s 20 25 mph 1013.8mb 80f 81f
9:50am 3ft 4s 4s 20 22 mph 1013.9mb 80f 81f